LFST Airport Information

Runway Information
Runway 05 Length 7874 ft width 148 ft
Elevation 503 ft Threshold 0 ft Heading 49
Runway 23 Length 7874 ft Width 148 ft
Elevation 491 ft Threshold 0 ft Heading 229
Airport Frequencies
Type APP Name STRASBOURG Frequency 119.45 MHZ
Type ATIS Name STRASBOURG Frequency 126.925 MHZ
Type GND Name STRASBOURG Frequency 121.8 MHZ
Type TWR Name STRASBOURG Frequency 126.875 MHZ
Airport Navaids
Type VOR-DME Name Saverne Frequency 110450 KHZ
Type VOR-DME Name Strasbourg Frequency 115600 KHZ
Airport Weather Information & NOTAM
ADDS - METARS form results

(0133 UTC 19 August 2018)
 
METAR text: LFST 190100Z AUTO 30005KT CAVOK 18/11 Q1022 NOSIG
Conditions at: LFST (STRASBOURG/ENTZH, FR) observed 0100 UTC 19 August 2018
Temperature: 18.0°C (64°F)
Dewpoint: 11.0°C (52°F) [RH = 64%]
Pressure (altimeter): 30.18 inches Hg (1022.0 mb)
Winds: from the WNW (300 degrees) at 6 MPH (5 knots; 2.6 m/s)
Visibility: 6 or more miles (10+ km)
Ceiling: ceiling and visibility are OK
Clouds: unknown
Weather: no significant weather observed at this time